sensor_id;sensor_type;location;lat;lon;timestamp;P1;durP1;ratioP1;P2;durP2;ratioP2
20776;SDS011;10548;47.504;8.248;2022-10-16T00:01:20;10.70;;;5.17;;
20776;SDS011;10548;47.504;8.248;2022-10-16T00:03:49;8.10;;;4.10;;
20776;SDS011;10548;47.504;8.248;2022-10-16T00:06:18;13.30;;;4.77;;
20776;SDS011;10548;47.504;8.248;2022-10-16T00:08:46;13.47;;;4.80;;
20776;SDS011;10548;47.504;8.248;2022-10-16T00:11:18;9.60;;;4.63;;
20776;SDS011;10548;47.504;8.248;2022-10-16T00:13:47;9.00;;;5.60;;
20776;SDS011;10548;47.504;8.248;2022-10-16T00:16:16;13.73;;;4.13;;
20776;SDS011;10548;47.504;8.248;2022-10-16T00:18:44;15.83;;;4.80;;
20776;SDS011;10548;47.504;8.248;2022-10-16T00:21:21;12.63;;;4.00;;
20776;SDS011;10548;47.504;8.248;2022-10-16T00:23:55;12.57;;;4.57;;
20776;SDS011;10548;47.504;8.248;2022-10-16T00:26:27;7.47;;;3.83;;
20776;SDS011;10548;47.504;8.248;2022-10-16T00:28:56;11.23;;;4.97;;
20776;SDS011;10548;47.504;8.248;2022-10-16T00:31:23;13.33;;;4.73;;
20776;SDS011;10548;47.504;8.248;2022-10-16T00:33:51;15.97;;;5.27;;
20776;SDS011;10548;47.504;8.248;2022-10-16T00:36:20;16.67;;;5.33;;
20776;SDS011;10548;47.504;8.248;2022-10-16T00:38:55;15.60;;;5.57;;
20776;SDS011;10548;47.504;8.248;2022-10-16T00:41:31;18.13;;;4.90;;
20776;SDS011;10548;47.504;8.248;2022-10-16T00:43:59;27.60;;;6.10;;
20776;SDS011;10548;47.504;8.248;2022-10-16T00:46:38;12.37;;;5.37;;
20776;SDS011;10548;47.504;8.248;2022-10-16T00:49:10;11.93;;;5.00;;
20776;SDS011;10548;47.504;8.248;2022-10-16T00:51:54;21.03;;;7.43;;
20776;SDS011;10548;47.504;8.248;2022-10-16T00:54:22;24.63;;;7.63;;
20776;SDS011;10548;47.504;8.248;2022-10-16T00:56:54;11.63;;;5.43;;
20776;SDS011;10548;47.504;8.248;2022-10-16T00:59:24;16.80;;;7.50;;
20776;SDS011;10548;47.504;8.248;2022-10-16T01:01:54;16.97;;;6.37;;
20776;SDS011;10548;47.504;8.248;2022-10-16T01:04:22;11.93;;;5.67;;
20776;SDS011;10548;47.504;8.248;2022-10-16T01:07:04;15.07;;;5.83;;
20776;SDS011;10548;47.504;8.248;2022-10-16T01:09:54;10.03;;;6.43;;
20776;SDS011;10548;47.504;8.248;2022-10-16T01:12:35;14.37;;;8.60;;
20776;SDS011;10548;47.504;8.248;2022-10-16T01:18:19;23.47;;;10.03;;
20776;SDS011;10548;47.504;8.248;2022-10-16T01:21:12;21.80;;;10.27;;
20776;SDS011;10548;47.504;8.248;2022-10-16T01:27:10;16.13;;;9.87;;
20776;SDS011;10548;47.504;8.248;2022-10-16T01:32:37;16.37;;;8.53;;
20776;SDS011;10548;47.504;8.248;2022-10-16T01:35:23;14.87;;;9.87;;
20776;SDS011;10548;47.504;8.248;2022-10-16T01:38:37;34.60;;;10.77;;
20776;SDS011;10548;47.504;8.248;2022-10-16T01:40:49;23.27;;;10.00;;
20776;SDS011;10548;47.504;8.248;2022-10-16T01:43:24;16.63;;;9.53;;
20776;SDS011;10548;47.504;8.248;2022-10-16T01:45:56;21.20;;;10.23;;
20776;SDS011;10548;47.504;8.248;2022-10-16T01:48:24;27.00;;;13.90;;
20776;SDS011;10548;47.504;8.248;2022-10-16T01:50:54;31.20;;;11.47;;
20776;SDS011;10548;47.504;8.248;2022-10-16T01:53:28;22.33;;;9.27;;
20776;SDS011;10548;47.504;8.248;2022-10-16T01:55:56;37.30;;;12.83;;
20776;SDS011;10548;47.504;8.248;2022-10-16T01:58:25;81.53;;;17.70;;
20776;SDS011;10548;47.504;8.248;2022-10-16T02:01:01;90.97;;;18.60;;
20776;SDS011;10548;47.504;8.248;2022-10-16T02:03:31;95.00;;;20.40;;
20776;SDS011;10548;47.504;8.248;2022-10-16T02:06:00;46.90;;;16.00;;
20776;SDS011;10548;47.504;8.248;2022-10-16T02:08:28;39.77;;;14.57;;
20776;SDS011;10548;47.504;8.248;2022-10-16T02:10:57;15.60;;;10.27;;
20776;SDS011;10548;47.504;8.248;2022-10-16T02:13:29;15.13;;;10.07;;
20776;SDS011;10548;47.504;8.248;2022-10-16T02:16:03;22.47;;;9.40;;
20776;SDS011;10548;47.504;8.248;2022-10-16T02:18:31;18.90;;;10.60;;
20776;SDS011;10548;47.504;8.248;2022-10-16T02:21:00;23.90;;;9.93;;
20776;SDS011;10548;47.504;8.248;2022-10-16T02:23:50;76.97;;;12.50;;
20776;SDS011;10548;47.504;8.248;2022-10-16T02:26:30;21.17;;;9.90;;
20776;SDS011;10548;47.504;8.248;2022-10-16T02:29:04;70.67;;;15.80;;
20776;SDS011;10548;47.504;8.248;2022-10-16T02:31:38;39.27;;;12.30;;
20776;SDS011;10548;47.504;8.248;2022-10-16T02:34:10;107.53;;;18.17;;
20776;SDS011;10548;47.504;8.248;2022-10-16T02:36:39;55.87;;;12.20;;
20776;SDS011;10548;47.504;8.248;2022-10-16T02:39:07;54.43;;;13.20;;
20776;SDS011;10548;47.504;8.248;2022-10-16T02:41:36;42.77;;;15.53;;
20776;SDS011;10548;47.504;8.248;2022-10-16T02:44:03;36.93;;;14.43;;
20776;SDS011;10548;47.504;8.248;2022-10-16T02:46:31;13.23;;;10.40;;
20776;SDS011;10548;47.504;8.248;2022-10-16T02:48:58;45.93;;;15.63;;
20776;SDS011;10548;47.504;8.248;2022-10-16T02:51:25;153.07;;;22.80;;
20776;SDS011;10548;47.504;8.248;2022-10-16T02:53:52;55.13;;;17.37;;
20776;SDS011;10548;47.504;8.248;2022-10-16T02:56:19;84.87;;;17.27;;
20776;SDS011;10548;47.504;8.248;2022-10-16T02:58:46;360.13;;;33.97;;
20776;SDS011;10548;47.504;8.248;2022-10-16T03:01:14;56.33;;;12.77;;
20776;SDS011;10548;47.504;8.248;2022-10-16T03:03:43;135.80;;;15.70;;
20776;SDS011;10548;47.504;8.248;2022-10-16T03:06:10;73.57;;;16.73;;
20776;SDS011;10548;47.504;8.248;2022-10-16T03:08:37;45.27;;;14.30;;
20776;SDS011;10548;47.504;8.248;2022-10-16T03:11:05;241.97;;;22.50;;
20776;SDS011;10548;47.504;8.248;2022-10-16T03:13:32;116.87;;;14.87;;
20776;SDS011;10548;47.504;8.248;2022-10-16T03:15:59;20.93;;;10.77;;
20776;SDS011;10548;47.504;8.248;2022-10-16T03:18:26;46.10;;;11.07;;
20776;SDS011;10548;47.504;8.248;2022-10-16T03:20:53;15.47;;;10.00;;
20776;SDS011;10548;47.504;8.248;2022-10-16T03:23:20;14.80;;;8.47;;
20776;SDS011;10548;47.504;8.248;2022-10-16T03:25:47;17.67;;;8.40;;
20776;SDS011;10548;47.504;8.248;2022-10-16T03:28:14;28.17;;;8.67;;
20776;SDS011;10548;47.504;8.248;2022-10-16T03:30:42;24.37;;;10.43;;
20776;SDS011;10548;47.504;8.248;2022-10-16T03:33:10;12.33;;;8.93;;
20776;SDS011;10548;47.504;8.248;2022-10-16T03:35:37;16.57;;;8.60;;
20776;SDS011;10548;47.504;8.248;2022-10-16T03:38:04;12.73;;;9.47;;
20776;SDS011;10548;47.504;8.248;2022-10-16T03:40:32;10.03;;;8.70;;
20776;SDS011;10548;47.504;8.248;2022-10-16T03:42:59;53.03;;;13.77;;
20776;SDS011;10548;47.504;8.248;2022-10-16T03:45:26;32.13;;;13.10;;
20776;SDS011;10548;47.504;8.248;2022-10-16T03:47:54;189.87;;;24.57;;
20776;SDS011;10548;47.504;8.248;2022-10-16T03:50:21;509.37;;;35.40;;
20776;SDS011;10548;47.504;8.248;2022-10-16T03:52:48;576.67;;;42.20;;
20776;SDS011;10548;47.504;8.248;2022-10-16T03:55:15;47.63;;;14.50;;
20776;SDS011;10548;47.504;8.248;2022-10-16T03:57:42;22.97;;;13.27;;
20776;SDS011;10548;47.504;8.248;2022-10-16T04:00:10;108.17;;;18.10;;
20776;SDS011;10548;47.504;8.248;2022-10-16T04:02:38;27.23;;;12.03;;
20776;SDS011;10548;47.504;8.248;2022-10-16T04:05:06;74.33;;;17.77;;
20776;SDS011;10548;47.504;8.248;2022-10-16T04:07:33;52.17;;;13.57;;
20776;SDS011;10548;47.504;8.248;2022-10-16T04:10:01;77.70;;;17.87;;
20776;SDS011;10548;47.504;8.248;2022-10-16T04:12:28;83.03;;;16.03;;
20776;SDS011;10548;47.504;8.248;2022-10-16T04:14:55;65.57;;;17.40;;
20776;SDS011;10548;47.504;8.248;2022-10-16T04:17:23;369.03;;;34.13;;
20776;SDS011;10548;47.504;8.248;2022-10-16T04:19:50;283.10;;;30.23;;
20776;SDS011;10548;47.504;8.248;2022-10-16T04:22:17;183.87;;;21.90;;
20776;SDS011;10548;47.504;8.248;2022-10-16T04:24:45;172.23;;;18.03;;
20776;SDS011;10548;47.504;8.248;2022-10-16T04:27:12;256.93;;;31.17;;
20776;SDS011;10548;47.504;8.248;2022-10-16T04:29:39;125.37;;;17.33;;
20776;SDS011;10548;47.504;8.248;2022-10-16T04:32:07;51.67;;;18.90;;
20776;SDS011;10548;47.504;8.248;2022-10-16T04:34:35;23.97;;;12.37;;
20776;SDS011;10548;47.504;8.248;2022-10-16T04:37:04;25.13;;;13.47;;
20776;SDS011;10548;47.504;8.248;2022-10-16T04:39:31;15.67;;;10.57;;
20776;SDS011;10548;47.504;8.248;2022-10-16T04:41:59;13.43;;;9.60;;
20776;SDS011;10548;47.504;8.248;2022-10-16T04:44:26;19.10;;;7.50;;
20776;SDS011;10548;47.504;8.248;2022-10-16T04:46:53;11.00;;;8.10;;
20776;SDS011;10548;47.504;8.248;2022-10-16T04:49:20;9.60;;;8.27;;
20776;SDS011;10548;47.504;8.248;2022-10-16T04:51:48;13.47;;;8.20;;
20776;SDS011;10548;47.504;8.248;2022-10-16T04:54:15;9.53;;;6.97;;
20776;SDS011;10548;47.504;8.248;2022-10-16T04:56:42;12.77;;;5.80;;
20776;SDS011;10548;47.504;8.248;2022-10-16T04:59:13;8.57;;;7.00;;
20776;SDS011;10548;47.504;8.248;2022-10-16T05:01:41;21.33;;;10.60;;
20776;SDS011;10548;47.504;8.248;2022-10-16T05:04:08;12.77;;;8.67;;
20776;SDS011;10548;47.504;8.248;2022-10-16T05:06:36;12.43;;;9.73;;
20776;SDS011;10548;47.504;8.248;2022-10-16T05:09:05;13.17;;;8.60;;
20776;SDS011;10548;47.504;8.248;2022-10-16T05:11:32;40.60;;;13.00;;
20776;SDS011;10548;47.504;8.248;2022-10-16T05:14:00;26.57;;;12.83;;
20776;SDS011;10548;47.504;8.248;2022-10-16T05:16:27;27.93;;;13.77;;
20776;SDS011;10548;47.504;8.248;2022-10-16T05:18:54;20.23;;;11.50;;
20776;SDS011;10548;47.504;8.248;2022-10-16T05:21:41;126.87;;;17.80;;
20776;SDS011;10548;47.504;8.248;2022-10-16T05:24:08;54.67;;;14.27;;
20776;SDS011;10548;47.504;8.248;2022-10-16T05:26:36;31.47;;;14.33;;
20776;SDS011;10548;47.504;8.248;2022-10-16T05:29:03;99.40;;;17.33;;
20776;SDS011;10548;47.504;8.248;2022-10-16T05:31:30;105.40;;;17.87;;
20776;SDS011;10548;47.504;8.248;2022-10-16T05:33:58;72.47;;;13.80;;
20776;SDS011;10548;47.504;8.248;2022-10-16T05:36:26;50.87;;;14.53;;
20776;SDS011;10548;47.504;8.248;2022-10-16T05:38:53;15.87;;;11.77;;
20776;SDS011;10548;47.504;8.248;2022-10-16T05:41:20;10.40;;;8.17;;
20776;SDS011;10548;47.504;8.248;2022-10-16T05:43:50;20.37;;;10.90;;
20776;SDS011;10548;47.504;8.248;2022-10-16T05:46:17;17.17;;;10.57;;
20776;SDS011;10548;47.504;8.248;2022-10-16T05:48:44;26.47;;;13.37;;
20776;SDS011;10548;47.504;8.248;2022-10-16T05:51:12;14.13;;;10.63;;
20776;SDS011;10548;47.504;8.248;2022-10-16T05:53:40;21.27;;;10.67;;
20776;SDS011;10548;47.504;8.248;2022-10-16T05:56:13;14.67;;;9.50;;
20776;SDS011;10548;47.504;8.248;2022-10-16T05:58:40;10.07;;;7.57;;
20776;SDS011;10548;47.504;8.248;2022-10-16T06:01:12;17.23;;;8.73;;
20776;SDS011;10548;47.504;8.248;2022-10-16T06:03:41;10.57;;;9.00;;
20776;SDS011;10548;47.504;8.248;2022-10-16T06:06:12;13.07;;;9.00;;
20776;SDS011;10548;47.504;8.248;2022-10-16T06:08:44;14.37;;;9.57;;
20776;SDS011;10548;47.504;8.248;2022-10-16T06:11:14;14.87;;;8.53;;
20776;SDS011;10548;47.504;8.248;2022-10-16T06:13:43;20.50;;;9.93;;
20776;SDS011;10548;47.504;8.248;2022-10-16T06:16:12;15.83;;;9.57;;
20776;SDS011;10548;47.504;8.248;2022-10-16T06:18:40;20.77;;;11.43;;
20776;SDS011;10548;47.504;8.248;2022-10-16T06:21:11;13.20;;;10.60;;
20776;SDS011;10548;47.504;8.248;2022-10-16T06:23:41;12.10;;;9.37;;
20776;SDS011;10548;47.504;8.248;2022-10-16T06:26:09;12.53;;;9.20;;
20776;SDS011;10548;47.504;8.248;2022-10-16T06:28:37;14.43;;;7.53;;
20776;SDS011;10548;47.504;8.248;2022-10-16T06:31:06;12.13;;;8.33;;
20776;SDS011;10548;47.504;8.248;2022-10-16T06:33:34;19.80;;;11.27;;
20776;SDS011;10548;47.504;8.248;2022-10-16T06:36:05;16.00;;;10.30;;
20776;SDS011;10548;47.504;8.248;2022-10-16T06:38:34;24.27;;;12.03;;
20776;SDS011;10548;47.504;8.248;2022-10-16T06:41:02;17.30;;;8.47;;
20776;SDS011;10548;47.504;8.248;2022-10-16T06:43:30;11.33;;;8.47;;
20776;SDS011;10548;47.504;8.248;2022-10-16T06:45:59;11.80;;;8.67;;
20776;SDS011;10548;47.504;8.248;2022-10-16T06:48:27;17.17;;;9.70;;
20776;SDS011;10548;47.504;8.248;2022-10-16T06:50:58;40.20;;;10.10;;
20776;SDS011;10548;47.504;8.248;2022-10-16T06:53:37;170.80;;;16.47;;
20776;SDS011;10548;47.504;8.248;2022-10-16T06:56:27;268.53;;;22.00;;
20776;SDS011;10548;47.504;8.248;2022-10-16T06:58:56;45.80;;;9.60;;
20776;SDS011;10548;47.504;8.248;2022-10-16T07:01:23;92.57;;;15.13;;
20776;SDS011;10548;47.504;8.248;2022-10-16T07:03:52;27.97;;;15.13;;
20776;SDS011;10548;47.504;8.248;2022-10-16T07:06:20;32.07;;;10.73;;
20776;SDS011;10548;47.504;8.248;2022-10-16T07:08:48;34.87;;;13.17;;
20776;SDS011;10548;47.504;8.248;2022-10-16T07:11:17;38.40;;;12.67;;
20776;SDS011;10548;47.504;8.248;2022-10-16T07:13:46;16.80;;;9.00;;
20776;SDS011;10548;47.504;8.248;2022-10-16T07:16:21;18.73;;;10.53;;
20776;SDS011;10548;47.504;8.248;2022-10-16T07:18:50;19.40;;;9.87;;
20776;SDS011;10548;47.504;8.248;2022-10-16T07:21:25;17.47;;;8.77;;
20776;SDS011;10548;47.504;8.248;2022-10-16T07:23:55;14.90;;;9.17;;
20776;SDS011;10548;47.504;8.248;2022-10-16T07:26:24;11.57;;;7.07;;
20776;SDS011;10548;47.504;8.248;2022-10-16T07:28:52;12.20;;;7.93;;
20776;SDS011;10548;47.504;8.248;2022-10-16T07:31:20;16.00;;;8.77;;
20776;SDS011;10548;47.504;8.248;2022-10-16T07:33:48;12.43;;;7.40;;
20776;SDS011;10548;47.504;8.248;2022-10-16T07:36:16;18.87;;;8.40;;
20776;SDS011;10548;47.504;8.248;2022-10-16T07:38:44;16.33;;;8.57;;
20776;SDS011;10548;47.504;8.248;2022-10-16T07:41:16;15.77;;;9.90;;
20776;SDS011;10548;47.504;8.248;2022-10-16T07:43:51;29.67;;;8.70;;
20776;SDS011;10548;47.504;8.248;2022-10-16T07:46:20;9.60;;;7.43;;
20776;SDS011;10548;47.504;8.248;2022-10-16T07:48:49;17.60;;;11.07;;
20776;SDS011;10548;47.504;8.248;2022-10-16T07:51:23;76.67;;;59.87;;
20776;SDS011;10548;47.504;8.248;2022-10-16T07:53:52;105.57;;;13.10;;
20776;SDS011;10548;47.504;8.248;2022-10-16T07:56:20;42.73;;;9.17;;
20776;SDS011;10548;47.504;8.248;2022-10-16T07:58:47;106.93;;;14.17;;
20776;SDS011;10548;47.504;8.248;2022-10-16T08:01:16;52.63;;;14.13;;
20776;SDS011;10548;47.504;8.248;2022-10-16T08:03:45;103.50;;;13.60;;
20776;SDS011;10548;47.504;8.248;2022-10-16T08:06:17;72.60;;;10.30;;
20776;SDS011;10548;47.504;8.248;2022-10-16T08:08:52;50.90;;;13.40;;
20776;SDS011;10548;47.504;8.248;2022-10-16T08:11:19;42.77;;;13.80;;
20776;SDS011;10548;47.504;8.248;2022-10-16T08:13:46;65.40;;;10.47;;
20776;SDS011;10548;47.504;8.248;2022-10-16T08:16:14;32.57;;;8.70;;
20776;SDS011;10548;47.504;8.248;2022-10-16T08:18:41;14.17;;;9.17;;
20776;SDS011;10548;47.504;8.248;2022-10-16T08:21:13;6.07;;;5.47;;
20776;SDS011;10548;47.504;8.248;2022-10-16T08:23:46;65.87;;;10.40;;
20776;SDS011;10548;47.504;8.248;2022-10-16T08:26:22;15.13;;;8.37;;
20776;SDS011;10548;47.504;8.248;2022-10-16T08:28:49;6.57;;;5.40;;
20776;SDS011;10548;47.504;8.248;2022-10-16T08:31:18;10.40;;;6.50;;
20776;SDS011;10548;47.504;8.248;2022-10-16T08:33:46;9.73;;;5.40;;
20776;SDS011;10548;47.504;8.248;2022-10-16T08:36:14;7.10;;;6.40;;
20776;SDS011;10548;47.504;8.248;2022-10-16T08:38:42;8.50;;;5.70;;
20776;SDS011;10548;47.504;8.248;2022-10-16T08:41:17;15.40;;;7.17;;
20776;SDS011;10548;47.504;8.248;2022-10-16T08:45:08;11.57;;;6.03;;
20776;SDS011;10548;47.504;8.248;2022-10-16T08:47:40;11.57;;;5.90;;
20776;SDS011;10548;47.504;8.248;2022-10-16T08:50:29;9.10;;;5.30;;
20776;SDS011;10548;47.504;8.248;2022-10-16T08:52:58;9.10;;;5.30;;
20776;SDS011;10548;47.504;8.248;2022-10-16T08:55:38;6.43;;;5.30;;
20776;SDS011;10548;47.504;8.248;2022-10-16T08:58:14;7.57;;;4.43;;
20776;SDS011;10548;47.504;8.248;2022-10-16T09:00:43;6.07;;;4.33;;
20776;SDS011;10548;47.504;8.248;2022-10-16T09:09:47;7.90;;;3.50;;
20776;SDS011;10548;47.504;8.248;2022-10-16T09:12:39;7.20;;;3.30;;
20776;SDS011;10548;47.504;8.248;2022-10-16T09:15:22;7.50;;;3.43;;
20776;SDS011;10548;47.504;8.248;2022-10-16T09:18:32;9.10;;;3.57;;
20776;SDS011;10548;47.504;8.248;2022-10-16T09:21:16;11.67;;;3.23;;
20776;SDS011;10548;47.504;8.248;2022-10-16T09:23:47;10.97;;;3.90;;
20776;SDS011;10548;47.504;8.248;2022-10-16T09:26:15;4.77;;;2.93;;
20776;SDS011;10548;47.504;8.248;2022-10-16T09:28:45;11.83;;;2.77;;
20776;SDS011;10548;47.504;8.248;2022-10-16T09:31:16;6.10;;;2.90;;
20776;SDS011;10548;47.504;8.248;2022-10-16T09:33:47;7.20;;;2.73;;
20776;SDS011;10548;47.504;8.248;2022-10-16T09:36:19;9.67;;;3.03;;
20776;SDS011;10548;47.504;8.248;2022-10-16T09:38:48;8.10;;;3.20;;
20776;SDS011;10548;47.504;8.248;2022-10-16T09:41:17;6.03;;;2.93;;
20776;SDS011;10548;47.504;8.248;2022-10-16T09:43:57;10.00;;;3.33;;
20776;SDS011;10548;47.504;8.248;2022-10-16T09:49:22;14.57;;;3.03;;
20776;SDS011;10548;47.504;8.248;2022-10-16T09:51:51;7.47;;;2.60;;
20776;SDS011;10548;47.504;8.248;2022-10-16T09:54:29;5.37;;;2.37;;
20776;SDS011;10548;47.504;8.248;2022-10-16T09:57:10;4.67;;;2.67;;
20776;SDS011;10548;47.504;8.248;2022-10-16T09:59:47;7.63;;;2.83;;
20776;SDS011;10548;47.504;8.248;2022-10-16T10:02:19;12.43;;;2.90;;
20776;SDS011;10548;47.504;8.248;2022-10-16T10:05:01;5.90;;;2.57;;
20776;SDS011;10548;47.504;8.248;2022-10-16T10:07:32;4.00;;;2.67;;
20776;SDS011;10548;47.504;8.248;2022-10-16T10:10:19;3.50;;;2.50;;
20776;SDS011;10548;47.504;8.248;2022-10-16T10:12:53;7.63;;;3.10;;
20776;SDS011;10548;47.504;8.248;2022-10-16T10:15:21;7.47;;;2.33;;
20776;SDS011;10548;47.504;8.248;2022-10-16T10:17:51;18.03;;;2.63;;
20776;SDS011;10548;47.504;8.248;2022-10-16T10:20:24;4.00;;;2.20;;
20776;SDS011;10548;47.504;8.248;2022-10-16T10:22:55;3.27;;;1.70;;
20776;SDS011;10548;47.504;8.248;2022-10-16T10:28:54;4.80;;;1.70;;
20776;SDS011;10548;47.504;8.248;2022-10-16T10:31:55;6.67;;;2.10;;
20776;SDS011;10548;47.504;8.248;2022-10-16T10:35:06;3.37;;;2.07;;
20776;SDS011;10548;47.504;8.248;2022-10-16T10:38:16;11.17;;;1.57;;
20776;SDS011;10548;47.504;8.248;2022-10-16T10:47:48;3.67;;;1.80;;
20776;SDS011;10548;47.504;8.248;2022-10-16T10:50:51;4.23;;;1.53;;
20776;SDS011;10548;47.504;8.248;2022-10-16T10:53:59;3.57;;;1.33;;
20776;SDS011;10548;47.504;8.248;2022-10-16T10:57:00;4.03;;;1.40;;
20776;SDS011;10548;47.504;8.248;2022-10-16T11:00:51;3.40;;;1.10;;
20776;SDS011;10548;47.504;8.248;2022-10-16T11:03:23;1.87;;;1.00;;
20776;SDS011;10548;47.504;8.248;2022-10-16T11:06:16;6.30;;;1.70;;
20776;SDS011;10548;47.504;8.248;2022-10-16T11:08:52;4.37;;;1.20;;
20776;SDS011;10548;47.504;8.248;2022-10-16T11:11:30;4.90;;;1.47;;
20776;SDS011;10548;47.504;8.248;2022-10-16T11:14:06;7.00;;;1.60;;
20776;SDS011;10548;47.504;8.248;2022-10-16T11:17:04;6.10;;;1.67;;
20776;SDS011;10548;47.504;8.248;2022-10-16T11:23:14;5.00;;;1.20;;
20776;SDS011;10548;47.504;8.248;2022-10-16T11:25:47;3.50;;;1.50;;
20776;SDS011;10548;47.504;8.248;2022-10-16T11:28:26;6.00;;;1.50;;
20776;SDS011;10548;47.504;8.248;2022-10-16T11:31:27;8.50;;;1.50;;
20776;SDS011;10548;47.504;8.248;2022-10-16T11:34:22;5.07;;;1.40;;
20776;SDS011;10548;47.504;8.248;2022-10-16T11:37:19;11.23;;;1.43;;
20776;SDS011;10548;47.504;8.248;2022-10-16T11:39:50;4.75;;;1.75;;
20776;SDS011;10548;47.504;8.248;2022-10-16T11:42:21;6.75;;;1.50;;
20776;SDS011;10548;47.504;8.248;2022-10-16T11:44:55;6.80;;;1.40;;
20776;SDS011;10548;47.504;8.248;2022-10-16T11:47:33;4.35;;;1.20;;
20776;SDS011;10548;47.504;8.248;2022-10-16T11:50:37;7.07;;;1.20;;
20776;SDS011;10548;47.504;8.248;2022-10-16T11:56:28;2.83;;;1.10;;
20776;SDS011;10548;47.504;8.248;2022-10-16T11:59:02;3.15;;;1.20;;
20776;SDS011;10548;47.504;8.248;2022-10-16T12:01:44;4.68;;;1.30;;
20776;SDS011;10548;47.504;8.248;2022-10-16T12:04:28;3.13;;;1.25;;
20776;SDS011;10548;47.504;8.248;2022-10-16T12:07:27;1.45;;;1.00;;
20776;SDS011;10548;47.504;8.248;2022-10-16T12:10:23;4.53;;;1.20;;
20776;SDS011;10548;47.504;8.248;2022-10-16T12:12:53;4.78;;;1.20;;
20776;SDS011;10548;47.504;8.248;2022-10-16T12:15:30;5.10;;;1.30;;
20776;SDS011;10548;47.504;8.248;2022-10-16T12:18:25;4.93;;;1.40;;
20776;SDS011;10548;47.504;8.248;2022-10-16T12:20:58;6.30;;;1.58;;
20776;SDS011;10548;47.504;8.248;2022-10-16T12:23:31;5.18;;;1.20;;
20776;SDS011;10548;47.504;8.248;2022-10-16T12:25:59;13.93;;;1.70;;
20776;SDS011;10548;47.504;8.248;2022-10-16T12:28:31;3.03;;;1.60;;
20776;SDS011;10548;47.504;8.248;2022-10-16T12:31:03;4.50;;;1.30;;
20776;SDS011;10548;47.504;8.248;2022-10-16T12:33:33;3.03;;;1.57;;
20776;SDS011;10548;47.504;8.248;2022-10-16T12:36:45;5.90;;;1.40;;
20776;SDS011;10548;47.504;8.248;2022-10-16T12:38:55;5.57;;;1.37;;
20776;SDS011;10548;47.504;8.248;2022-10-16T12:41:32;3.10;;;1.10;;
20776;SDS011;10548;47.504;8.248;2022-10-16T12:44:01;2.80;;;1.40;;
20776;SDS011;10548;47.504;8.248;2022-10-16T12:52:03;5.75;;;1.33;;
20776;SDS011;10548;47.504;8.248;2022-10-16T12:54:35;2.80;;;1.00;;
20776;SDS011;10548;47.504;8.248;2022-10-16T12:57:08;1.65;;;0.90;;
20776;SDS011;10548;47.504;8.248;2022-10-16T13:03:22;4.18;;;1.10;;
20776;SDS011;10548;47.504;8.248;2022-10-16T13:06:33;4.90;;;1.00;;
20776;SDS011;10548;47.504;8.248;2022-10-16T13:09:30;4.40;;;1.50;;
20776;SDS011;10548;47.504;8.248;2022-10-16T13:12:19;6.22;;;1.40;;
20776;SDS011;10548;47.504;8.248;2022-10-16T13:15:29;4.40;;;1.00;;
20776;SDS011;10548;47.504;8.248;2022-10-16T13:18:31;12.57;;;2.63;;
20776;SDS011;10548;47.504;8.248;2022-10-16T13:21:14;5.95;;;1.60;;
20776;SDS011;10548;47.504;8.248;2022-10-16T13:27:08;4.07;;;1.27;;
20776;SDS011;10548;47.504;8.248;2022-10-16T13:30:01;6.30;;;0.98;;
20776;SDS011;10548;47.504;8.248;2022-10-16T13:32:38;3.72;;;1.20;;
20776;SDS011;10548;47.504;8.248;2022-10-16T13:35:18;4.63;;;1.30;;
20776;SDS011;10548;47.504;8.248;2022-10-16T13:37:50;2.55;;;1.10;;
20776;SDS011;10548;47.504;8.248;2022-10-16T13:40:22;5.20;;;1.30;;
20776;SDS011;10548;47.504;8.248;2022-10-16T13:42:50;4.20;;;1.10;;
20776;SDS011;10548;47.504;8.248;2022-10-16T13:45:20;3.30;;;1.00;;
20776;SDS011;10548;47.504;8.248;2022-10-16T13:47:49;3.10;;;1.10;;
20776;SDS011;10548;47.504;8.248;2022-10-16T13:50:17;2.55;;;1.10;;
20776;SDS011;10548;47.504;8.248;2022-10-16T13:52:45;2.80;;;1.20;;
20776;SDS011;10548;47.504;8.248;2022-10-16T13:55:16;1.95;;;1.33;;
20776;SDS011;10548;47.504;8.248;2022-10-16T13:57:44;1.17;;;1.08;;
20776;SDS011;10548;47.504;8.248;2022-10-16T14:00:22;3.50;;;1.20;;
20776;SDS011;10548;47.504;8.248;2022-10-16T14:03:13;5.05;;;1.30;;
20776;SDS011;10548;47.504;8.248;2022-10-16T14:05:43;2.83;;;1.10;;
20776;SDS011;10548;47.504;8.248;2022-10-16T14:08:17;2.40;;;1.17;;
20776;SDS011;10548;47.504;8.248;2022-10-16T14:10:52;4.03;;;1.00;;
20776;SDS011;10548;47.504;8.248;2022-10-16T14:16:20;8.10;;;1.20;;
20776;SDS011;10548;47.504;8.248;2022-10-16T14:19:00;7.38;;;1.30;;
20776;SDS011;10548;47.504;8.248;2022-10-16T14:21:29;8.13;;;1.40;;
20776;SDS011;10548;47.504;8.248;2022-10-16T14:23:56;2.05;;;1.00;;
20776;SDS011;10548;47.504;8.248;2022-10-16T14:26:25;3.72;;;1.20;;
20776;SDS011;10548;47.504;8.248;2022-10-16T14:29:13;3.90;;;1.23;;
20776;SDS011;10548;47.504;8.248;2022-10-16T14:31:54;2.03;;;1.00;;
20776;SDS011;10548;47.504;8.248;2022-10-16T14:34:29;3.13;;;1.20;;
20776;SDS011;10548;47.504;8.248;2022-10-16T14:37:00;2.17;;;1.20;;
20776;SDS011;10548;47.504;8.248;2022-10-16T14:39:53;3.45;;;1.45;;
20776;SDS011;10548;47.504;8.248;2022-10-16T14:42:22;3.30;;;1.10;;
20776;SDS011;10548;47.504;8.248;2022-10-16T14:44:52;5.82;;;1.38;;
20776;SDS011;10548;47.504;8.248;2022-10-16T14:47:21;5.93;;;1.20;;
20776;SDS011;10548;47.504;8.248;2022-10-16T14:49:53;3.95;;;1.20;;
20776;SDS011;10548;47.504;8.248;2022-10-16T14:52:26;3.13;;;1.20;;
20776;SDS011;10548;47.504;8.248;2022-10-16T14:54:53;7.53;;;1.42;;
20776;SDS011;10548;47.504;8.248;2022-10-16T14:57:22;1.40;;;1.00;;
20776;SDS011;10548;47.504;8.248;2022-10-16T14:59:51;4.07;;;1.15;;
20776;SDS011;10548;47.504;8.248;2022-10-16T15:02:29;3.60;;;1.08;;
20776;SDS011;10548;47.504;8.248;2022-10-16T15:05:04;3.25;;;1.33;;
20776;SDS011;10548;47.504;8.248;2022-10-16T15:07:53;4.28;;;1.30;;
20776;SDS011;10548;47.504;8.248;2022-10-16T15:10:22;2.83;;;1.30;;
20776;SDS011;10548;47.504;8.248;2022-10-16T15:12:50;5.13;;;1.20;;
20776;SDS011;10548;47.504;8.248;2022-10-16T15:15:38;3.43;;;1.30;;
20776;SDS011;10548;47.504;8.248;2022-10-16T15:18:10;7.13;;;1.60;;
20776;SDS011;10548;47.504;8.248;2022-10-16T15:20:57;4.33;;;1.57;;
20776;SDS011;10548;47.504;8.248;2022-10-16T15:23:24;3.87;;;1.87;;
20776;SDS011;10548;47.504;8.248;2022-10-16T15:25:57;5.07;;;1.40;;
20776;SDS011;10548;47.504;8.248;2022-10-16T15:28:24;5.18;;;1.58;;
20776;SDS011;10548;47.504;8.248;2022-10-16T15:30:53;4.55;;;1.50;;
20776;SDS011;10548;47.504;8.248;2022-10-16T15:33:22;8.73;;;1.63;;
20776;SDS011;10548;47.504;8.248;2022-10-16T15:35:50;10.48;;;1.38;;
20776;SDS011;10548;47.504;8.248;2022-10-16T15:38:19;7.00;;;1.40;;
20776;SDS011;10548;47.504;8.248;2022-10-16T15:40:48;2.78;;;1.08;;
20776;SDS011;10548;47.504;8.248;2022-10-16T15:43:15;7.30;;;1.40;;
20776;SDS011;10548;47.504;8.248;2022-10-16T15:45:43;4.15;;;1.55;;
20776;SDS011;10548;47.504;8.248;2022-10-16T15:48:10;9.50;;;3.65;;
20776;SDS011;10548;47.504;8.248;2022-10-16T15:50:39;5.88;;;3.22;;
20776;SDS011;10548;47.504;8.248;2022-10-16T15:53:07;10.45;;;3.17;;
20776;SDS011;10548;47.504;8.248;2022-10-16T15:55:34;7.47;;;1.80;;
20776;SDS011;10548;47.504;8.248;2022-10-16T15:58:04;16.57;;;1.70;;
20776;SDS011;10548;47.504;8.248;2022-10-16T16:00:31;14.50;;;2.07;;
20776;SDS011;10548;47.504;8.248;2022-10-16T16:02:59;12.83;;;1.87;;
20776;SDS011;10548;47.504;8.248;2022-10-16T16:05:26;21.43;;;1.77;;